ADDS METAR Data INFO
IDs: Format: Raw Decoded Include TAF

Data at: 1148 UTC 23 Jun 2018

KSLO 231135Z AUTO 23006KT 10SM OVC045 20/18 A2981 RMK AO2 T02000182
KSLO 231115Z AUTO 23004KT 7SM OVC045 20/19 A2980 RMK AO2 T02000185
KSLO 231055Z AUTO 25003KT 10SM OVC045 20/18 A2978 RMK AO2 T01990181
KSLO 231035Z AUTO 00000KT 10SM OVC045 20/18 A2977 RMK AO2 T01990181
KSLO 231015Z AUTO 29003KT 10SM SCT011 OVC045 20/19 A2977 RMK AO2 T02000185
KSLO 230955Z AUTO 25003KT 10SM SCT015 BKN021 OVC045 20/19 A2977 RMK AO2 T02000185
KSLO 230935Z AUTO 00000KT 10SM BKN015 BKN021 OVC045 20/19 A2978 RMK AO2 T02010186
KSLO 230915Z AUTO 00000KT 10SM SCT011 SCT019 OVC045 20/19 A2977 RMK AO2 T02010186
KSLO 230855Z AUTO 00000KT 10SM SCT011 SCT016 OVC048 20/19 A2977 RMK AO2 T02010186
KSLO 230835Z AUTO 00000KT 10SM BKN011 BKN026 OVC048 20/19 A2976 RMK AO2 T02010185
KSLO 230815Z AUTO 00000KT 10SM BKN011 OVC026 20/19 A2977 RMK AO2 T02020185
KSLO 230755Z AUTO 27004KT 10SM SCT015 BKN023 OVC050 20/19 A2977 RMK AO2 T02010185
KSLO 230735Z AUTO 25005KT 10SM SCT013 SCT030 OVC050 20/18 A2977 RMK AO2 T02010184
KSLO 230715Z AUTO 25003KT 10SM BKN043 OVC050 20/18 A2977 RMK AO2 T02010183
KSLO 230655Z AUTO 25005KT 10SM BKN041 OVC050 20/18 A2977 RMK AO2 T02010183
KSLO 230635Z AUTO 26004KT 10SM OVC050 20/18 A2977 RMK AO2 T02000183
KSLO 230615Z AUTO 26003KT 10SM BKN050 20/18 A2976 RMK AO2 T02000184
KSLO 230555Z AUTO 00000KT 10SM SCT013 OVC050 20/19 A2975 RMK AO2 T02030185 10235 20203 402520187
KSLO 230535Z AUTO 25003KT 10SM SCT013 OVC047 21/18 A2976 RMK AO2 T02050182
KSLO 230515Z AUTO 30005KT 10SM OVC045 21/18 A2977 RMK AO2 T02060181
KSLO 230455Z AUTO 00000KT 10SM OVC043 21/18 A2976 RMK AO2 T02070181
KSLO 230435Z AUTO 00000KT 10SM OVC041 21/18 A2977 RMK AO2 T02080182
KSLO 230415Z AUTO 29004KT 10SM OVC041 21/18 A2976 RMK AO2 T02100181
KSLO 230355Z AUTO 28003KT 10SM OVC039 21/18 A2975 RMK AO2 T02100181
KSLO 230335Z AUTO 00000KT 10SM OVC039 21/18 A2975 RMK AO2 T02100183
KSLO 230315Z AUTO 00000KT 10SM OVC039 21/18 A2975 RMK AO2 T02110181
KSLO 230255Z AUTO 31005KT 10SM OVC041 21/18 A2974 RMK AO2 T02100180
KSLO 230235Z AUTO 30005KT 10SM OVC043 21/18 A2974 RMK AO2 T02110178
KSLO 230215Z AUTO 29004KT 10SM OVC043 21/18 A2973 RMK AO2 T02110180
KSLO 230155Z AUTO 29003KT 10SM BKN043 21/18 A2972 RMK AO2 T02130182
KSLO 230135Z AUTO 28004KT 10SM SCT041 22/18 A2973 RMK AO2 T02150181
KSLO 230115Z AUTO 30004KT 10SM CLR 22/18 A2972 RMK AO2 T02180180
KSLO 230055Z AUTO 31006KT 10SM CLR 23/18 A2972 RMK AO2 T02250177
KSLO 230035Z AUTO 31008G15KT 10SM CLR 23/17 A2972 RMK AO2 T02280174
KSLO 230015Z AUTO 29012G16KT 10SM CLR 23/18 A2971 RMK AO2 T02290178
KSLO 222355Z AUTO 30009G15KT 10SM SCT024 SCT031 SCT050 24/19 A2971 RMK AO2 T02360187 10252 20230
KSLO 222335Z AUTO 29010KT 10SM SCT024 SCT049 BKN060 24/20 A2970 RMK AO2 T02420198
KSLO 222315Z AUTO 30008KT 10SM SCT050 BKN060 OVC070 23/20 A2970 RMK AO2 T02300198
KSLO 222255Z AUTO 31010G14KT 10SM SCT021 SCT029 BKN070 24/19 A2970 RMK AO2 LTG DSNT E T02360193
KSLO 222235Z AUTO 29009KT 10SM BKN023 BKN027 24/19 A2970 RMK AO2 T02440194
KSLO 222215Z AUTO 28011G15KT 10SM SCT021 BKN027 25/20 A2970 RMK AO2 LTG DSNT NE T02460199
KSLO 222155Z AUTO 29011G16KT 10SM SCT021 25/19 A2970 RMK AO2 T02480194
KSLO 222135Z AUTO 30012G15KT 10SM SCT019 24/19 A2970 RMK AO2 T02430193
KSLO 222115Z AUTO 27014KT 10SM SCT016 24/19 A2970 RMK AO2 T02390194
KSLO 222055Z AUTO 29013G17KT 10SM BKN016 23/20 A2970 RMK AO2 T02330195
KSLO 222035Z AUTO 28011G18KT 10SM SCT016 23/20 A2969 RMK AO2 T02340198
KSLO 222015Z AUTO 27008G14KT 10SM SCT020 SCT028 24/20 A2969 RMK AO2 T02360197
KSLO 221955Z AUTO 28008G17KT 10SM SCT020 BKN028 BKN033 25/20 A2970 RMK AO2 LTG DSNT NE T02460196
KSLO 221935Z AUTO 26013G17KT 250V310 10SM SCT020 SCT026 25/20 A2970 RMK AO2 T02500200
KSLO 221915Z AUTO 28011KT 10SM SCT022 24/19 A2969 RMK AO2 LTG DSNT E S AND W T02440194
KSLO 221855Z AUTO 30007KT 10SM CLR 24/19 A2970 RMK AO2 T02430190
KSLO 221835Z AUTO 30008KT 10SM SCT036 SCT048 SCT120 23/19 A2970 RMK AO2 LTG DSNT N T02310191
KSLO 221815Z AUTO 29008KT 10SM SCT038 SCT048 SCT050 23/19 A2970 RMK AO2 LTG DSNT N T02300186
KSLO 221755Z AUTO 30007KT 10SM SCT022 SCT033 BKN050 23/18 A2970 RMK AO2 LTG DSNT N T02340184 10245 20200
KSLO 221735Z AUTO 29007KT 10SM SCT020 BKN034 BKN039 24/18 A2970 RMK AO2 LTG DSNT NE T02370184
KSLO 221715Z AUTO 27006KT 10SM SCT018 SCT024 BKN036 25/19 A2970 RMK AO2 LTG DSNT N T02450186
KSLO 221655Z AUTO 26007KT 10SM BKN018 BKN026 BKN034 24/20 A2970 RMK AO2 LTG DSNT NE T02400197
KSLO 221635Z AUTO 26005KT 10SM BKN018 BKN026 BKN034 23/19 A2970 RMK AO2 T02340189
KSLO 221615Z AUTO 31006KT 10SM BKN016 OVC023 23/19 A2970 RMK AO2 T02300194
KSLO 221555Z AUTO 00000KT 10SM BKN014 OVC027 23/19 A2970 RMK AO2 T02250187
KSLO 221535Z AUTO 00000KT 10SM OVC012 22/19 A2970 RMK AO2 T02220187
KSLO 221515Z AUTO 00000KT 10SM BKN012 OVC020 22/19 A2970 RMK AO2 T02210191
KSLO 221455Z AUTO 30004KT 10SM OVC010 22/19 A2970 RMK AO2 T02150190
KSLO 221435Z AUTO 26005KT 10SM SCT010 BKN014 OVC027 21/19 A2970 RMK AO2 T02110187
KSLO 221415Z AUTO 00000KT 10SM SCT009 BKN020 OVC024 21/19 A2969 RMK AO2 T02130185
KSLO 221355Z AUTO 25003KT 10SM SCT011 BKN016 OVC036 21/19 A2969 RMK AO2 T02110187
KSLO 221335Z AUTO 00000KT 10SM BKN014 OVC041 21/19 A2969 RMK AO2 T02120186
KSLO 221315Z AUTO 00000KT 10SM SCT010 BKN018 OVC038 21/19 A2969 RMK AO2 T02110187
KSLO 221255Z AUTO 00000KT 10SM SCT010 SCT029 OVC037 21/19 A2969 RMK AO2 T02090186
KSLO 221235Z AUTO 00000KT 10SM SCT020 BKN030 OVC039 21/18 A2969 RMK AO2 T02070182
KSLO 221215Z AUTO 00000KT 10SM BKN020 OVC039 21/18 A2970 RMK AO2 T02050181
KSLO 221155Z AUTO 00000KT 10SM BKN020 OVC027 20/18 A2969 RMK AO2 70062 T02000183 10200 20187
KSLO 221135Z AUTO 00000KT 10SM SCT024 BKN030 OVC043 20/18 A2969 RMK AO2 T01980181
KSLO 221115Z AUTO 00000KT 10SM SCT034 OVC041 20/18 A2969 RMK AO2 T01960182
KSLO 221055Z AUTO 00000KT 10SM BKN034 BKN040 OVC060 20/18 A2969 RMK AO2 T01970178
KSLO 221035Z AUTO 00000KT 10SM SCT046 OVC060 20/18 A2969 RMK AO2 LTG DSNT SW T01950177
KSLO 221015Z AUTO 00000KT 10SM SCT028 OVC060 20/18 A2968 RMK AO2 T01960176
KSLO 220955Z AUTO 00000KT 10SM OVC060 20/18 A2968 RMK AO2 T01960175
KSLO 220935Z AUTO 00000KT 10SM OVC060 20/18 A2968 RMK AO2 LTG DSNT W T01950180
KSLO 220915Z AUTO 00000KT 10SM SCT040 SCT047 OVC070 20/18 A2968 RMK AO2 T01950180
KSLO 220855Z AUTO 00000KT 10SM BKN040 OVC047 20/18 A2968 RMK AO2 T01950180
KSLO 220835Z AUTO 00000KT 10SM OVC043 20/18 A2968 RMK AO2 T01950180
KSLO 220815Z AUTO 00000KT 10SM SCT046 BKN065 OVC110 20/18 A2968 RMK AO2 T01950178
KSLO 220755Z AUTO 00000KT 10SM BKN110 19/18 A2968 RMK AO2 T01920177
KSLO 220735Z AUTO 19003KT 10SM SCT043 SCT049 BKN060 19/18 A2968 RMK AO2 T01900176
KSLO 220715Z AUTO 00000KT 10SM SCT043 BKN055 BKN065 19/18 A2968 RMK AO2 T01880176
KSLO 220655Z AUTO 00000KT 10SM CLR 19/17 A2969 RMK AO2 T01880173
KSLO 220635Z AUTO 00000KT 10SM SCT085 SCT120 19/18 A2969 RMK AO2 T01900176
KSLO 220615Z AUTO 00000KT 10SM SCT065 SCT085 BKN120 19/18 A2970 RMK AO2 T01920175
KSLO 220555Z AUTO 00000KT 10SM SCT048 SCT065 BKN120 19/18 A2970 RMK AO2 T01940178 10216 20188 402890188
KSLO 220535Z AUTO 23003KT 10SM SCT046 SCT110 19/18 A2971 RMK AO2 T01920175
KSLO 220515Z AUTO 22004KT 10SM SCT080 19/18 A2972 RMK AO2 T01910180
KSLO 220455Z AUTO 20003KT 10SM SCT080 19/18 A2972 RMK AO2 T01900178
KSLO 220435Z AUTO 00000KT 10SM CLR 19/18 A2972 RMK AO2 T01890176
KSLO 220415Z AUTO 00000KT 10SM -RA SCT120 19/18 A2972 RMK AO2 T01930181
KSLO 220355Z AUTO 00000KT 10SM BKN110 19/18 A2973 RMK AO2 T01940181
KSLO 220335Z AUTO 00000KT 10SM BKN110 20/18 A2974 RMK AO2 T02000182
KSLO 220315Z AUTO 00000KT 10SM CLR 21/18 A2974 RMK AO2 T02050177
KSLO 220255Z AUTO 00000KT 10SM CLR 21/18 A2974 RMK AO2 T02060175
KSLO 220235Z AUTO 24003KT 10SM CLR 21/18 A2973 RMK AO2 T02100177
KSLO 220215Z AUTO 24008KT 10SM CLR 21/18 A2972 RMK AO2 T02100184
KSLO 220155Z AUTO 23008KT 10SM SCT044 BKN050 21/19 A2972 RMK AO2 T02100188
KSLO 220135Z AUTO 23006KT 10SM BKN044 BKN095 21/19 A2971 RMK AO2 T02070185
KSLO 220115Z AUTO 22004KT 10SM SCT095 21/19 A2970 RMK AO2 T02080185
KSLO 220055Z AUTO 25004KT 10SM CLR 21/19 A2969 RMK AO2 T02110186
KSLO 220035Z AUTO 26003KT 10SM CLR 22/19 A2969 RMK AO2 T02150186
KSLO 220015Z AUTO 22004KT 10SM SCT110 21/19 A2969 RMK AO2 LTG DSNT N T02110189
KSLO 212355Z AUTO 26003KT 10SM SCT090 BKN110 21/18 A2970 RMK AO2 60062 T02080182 10289 20200